createdAt,value
2019-03-31T00:00:07.978Z,3.60
2019-03-31T00:01:08.733Z,3.60
2019-03-31T00:02:08.008Z,3.60
2019-03-31T00:03:08.573Z,3.40
2019-03-31T00:04:08.367Z,3.40
2019-03-31T00:05:07.924Z,3.60
2019-03-31T00:06:07.909Z,3.20
2019-03-31T00:07:07.893Z,3.30
2019-03-31T00:08:07.938Z,3.50
2019-03-31T00:09:07.883Z,3.30
2019-03-31T00:10:07.870Z,3.30
2019-03-31T00:11:07.847Z,3.40
2019-03-31T00:12:07.833Z,3.20
2019-03-31T00:13:08.140Z,3.30
2019-03-31T00:14:07.870Z,3.50
2019-03-31T00:15:07.824Z,3.40
2019-03-31T00:16:07.787Z,3.30
2019-03-31T00:17:07.781Z,3.30
2019-03-31T00:18:07.769Z,3.20
2019-03-31T00:19:07.757Z,3.30
2019-03-31T00:20:07.765Z,3.40
2019-03-31T00:21:07.735Z,3.20
2019-03-31T00:22:07.723Z,3.40
2019-03-31T00:23:07.712Z,3.50
2019-03-31T00:24:07.701Z,3.50
2019-03-31T00:25:07.854Z,3.30
2019-03-31T00:26:07.683Z,3.10
2019-03-31T00:27:07.668Z,3.40
2019-03-31T00:28:08.578Z,3.20
2019-03-31T00:29:07.647Z,3.10
2019-03-31T00:30:07.654Z,3.50
2019-03-31T00:31:21.170Z,3.20
2019-03-31T00:32:09.003Z,3.00
2019-03-31T00:33:07.611Z,3.40
2019-03-31T00:34:07.591Z,3.50
2019-03-31T00:35:07.642Z,3.30
2019-03-31T00:36:07.720Z,3.40
2019-03-31T00:37:07.960Z,3.10
2019-03-31T00:38:07.992Z,3.10
2019-03-31T00:39:07.536Z,3.10
2019-03-31T00:40:07.541Z,3.30
2019-03-31T00:41:07.518Z,3.10
2019-03-31T00:42:07.507Z,3.30
2019-03-31T00:43:07.493Z,3.20
2019-03-31T00:44:07.482Z,3.10
2019-03-31T00:45:07.877Z,3.20
2019-03-31T00:46:07.773Z,3.20
2019-03-31T00:47:07.454Z,3.40
2019-03-31T00:48:07.799Z,3.30
2019-03-31T00:49:07.883Z,3.40
2019-03-31T00:50:07.435Z,3.00
2019-03-31T00:51:07.563Z,3.30
2019-03-31T00:52:07.715Z,3.60
2019-03-31T00:53:07.725Z,3.40
2019-03-31T00:54:07.578Z,3.40
2019-03-31T00:55:07.554Z,3.40
2019-03-31T00:56:07.351Z,3.40
2019-03-31T00:57:07.467Z,3.30
2019-03-31T00:58:07.365Z,3.60
2019-03-31T00:59:07.319Z,3.30
2019-03-31T01:00:07.326Z,3.20
2019-03-31T01:01:07.310Z,3.30
2019-03-31T01:02:07.285Z,3.50
2019-03-31T01:03:07.273Z,3.40
2019-03-31T01:04:07.265Z,3.70
2019-03-31T01:05:07.268Z,3.40
2019-03-31T01:06:07.247Z,3.50
2019-03-31T01:07:07.230Z,3.70
2019-03-31T01:08:07.225Z,3.40
2019-03-31T01:09:07.273Z,3.80
2019-03-31T01:10:07.213Z,3.80
2019-03-31T01:11:07.188Z,3.30
2019-03-31T01:12:07.177Z,3.50
2019-03-31T01:13:07.163Z,3.50
2019-03-31T01:14:07.152Z,3.80
2019-03-31T01:15:07.158Z,3.60
2019-03-31T01:16:07.132Z,3.50
2019-03-31T01:17:07.121Z,3.80
2019-03-31T01:18:07.118Z,3.40
2019-03-31T01:19:07.099Z,3.50
2019-03-31T01:20:07.101Z,3.50
2019-03-31T01:21:07.078Z,3.70
2019-03-31T01:22:07.065Z,3.60
2019-03-31T01:23:07.056Z,3.80
2019-03-31T01:24:07.054Z,3.60
2019-03-31T01:25:07.049Z,3.50
2019-03-31T01:26:07.021Z,3.90
2019-03-31T01:27:07.014Z,3.90
2019-03-31T01:28:07.004Z,3.50
2019-03-31T01:29:06.992Z,3.60
2019-03-31T01:30:07.001Z,3.80
2019-03-31T01:31:06.967Z,3.70
2019-03-31T01:32:06.956Z,3.40
2019-03-31T01:33:06.945Z,3.70
2019-03-31T01:34:06.941Z,3.80
2019-03-31T01:35:06.937Z,4.20
2019-03-31T01:36:06.911Z,3.80
2019-03-31T01:37:06.903Z,4.00
2019-03-31T01:38:06.890Z,4.10
2019-03-31T01:39:06.879Z,3.70
2019-03-31T01:40:06.890Z,3.90
2019-03-31T01:41:06.865Z,3.70
2019-03-31T01:42:06.845Z,3.60
2019-03-31T01:43:06.834Z,3.80
2019-03-31T01:44:06.826Z,3.70
2019-03-31T01:45:06.838Z,3.40
2019-03-31T01:46:06.801Z,3.50
2019-03-31T01:47:06.806Z,3.80
2019-03-31T01:48:06.780Z,3.70
2019-03-31T01:49:06.770Z,3.40
2019-03-31T01:50:06.773Z,3.50
2019-03-31T01:51:06.751Z,3.30
2019-03-31T01:52:06.740Z,3.60
2019-03-31T01:53:06.725Z,3.70
2019-03-31T01:54:06.715Z,3.80
2019-03-31T01:55:06.752Z,3.30
2019-03-31T01:56:06.693Z,3.50
2019-03-31T01:57:06.688Z,3.40
2019-03-31T01:58:06.677Z,3.70
2019-03-31T01:59:06.681Z,3.60
2019-03-31T02:00:06.653Z,3.50
2019-03-31T02:01:06.652Z,3.40
2019-03-31T02:02:06.627Z,3.20
2019-03-31T02:03:06.615Z,3.40
2019-03-31T02:04:06.609Z,3.50
2019-03-31T02:05:06.597Z,3.50
2019-03-31T02:06:06.598Z,3.50
2019-03-31T02:07:06.573Z,3.60
2019-03-31T02:08:06.564Z,3.30
2019-03-31T02:09:06.556Z,3.30
2019-03-31T02:10:06.559Z,3.50
2019-03-31T02:11:06.544Z,3.40
2019-03-31T02:12:06.527Z,3.30
2019-03-31T02:13:06.505Z,3.20
2019-03-31T02:14:06.505Z,3.50
2019-03-31T02:15:06.484Z,3.30
2019-03-31T02:16:06.492Z,3.70
2019-03-31T02:17:06.463Z,3.20
2019-03-31T02:18:06.452Z,3.50
2019-03-31T02:19:06.442Z,3.40
2019-03-31T02:20:06.439Z,3.20
2019-03-31T02:21:06.439Z,3.10
2019-03-31T02:22:06.409Z,3.20
2019-03-31T02:23:06.397Z,3.70
2019-03-31T02:24:06.385Z,3.30
2019-03-31T02:25:06.374Z,3.70
2019-03-31T02:26:06.380Z,3.40
2019-03-31T02:27:06.365Z,3.00
2019-03-31T02:28:06.341Z,3.30
2019-03-31T02:29:06.332Z,3.30
2019-03-31T02:30:06.321Z,3.10
2019-03-31T02:31:06.329Z,3.40
2019-03-31T02:32:22.497Z,3.30
2019-03-31T02:33:07.288Z,3.10
2019-03-31T02:34:06.275Z,3.40
2019-03-31T02:35:06.266Z,3.60
2019-03-31T02:36:06.269Z,3.20
2019-03-31T02:37:06.245Z,3.10
2019-03-31T02:38:06.232Z,3.40
2019-03-31T02:39:06.239Z,3.50
2019-03-31T02:40:06.210Z,3.30
2019-03-31T02:41:06.211Z,3.30
2019-03-31T02:42:06.192Z,3.20
2019-03-31T02:43:06.188Z,3.30
2019-03-31T02:44:06.169Z,3.40
2019-03-31T02:45:06.171Z,2.90
2019-03-31T02:46:06.171Z,3.20
2019-03-31T02:47:06.136Z,3.40
2019-03-31T02:48:06.123Z,2.90
2019-03-31T02:49:06.120Z,3.00
2019-03-31T02:50:06.107Z,2.90
2019-03-31T02:51:06.116Z,3.10
2019-03-31T02:52:06.095Z,3.50
2019-03-31T02:53:06.068Z,3.30
2019-03-31T02:54:06.058Z,3.20
2019-03-31T02:55:06.047Z,3.20
2019-03-31T02:56:06.056Z,3.30
2019-03-31T02:57:06.035Z,3.50
2019-03-31T02:58:06.027Z,3.30
2019-03-31T02:59:06.003Z,3.20
2019-03-31T03:00:05.990Z,3.20
2019-03-31T03:01:06.004Z,3.20
2019-03-31T03:02:05.972Z,3.20
2019-03-31T03:03:05.959Z,3.30
2019-03-31T03:04:07.948Z,3.40
2019-03-31T03:05:18.676Z,3.10
2019-03-31T03:06:07.215Z,3.10
2019-03-31T03:07:05.916Z,3.10
2019-03-31T03:08:05.911Z,3.50
2019-03-31T03:09:05.893Z,3.30
2019-03-31T03:10:05.883Z,3.50
2019-03-31T03:11:05.869Z,3.30
2019-03-31T03:12:05.880Z,3.30
2019-03-31T03:13:05.853Z,3.30
2019-03-31T03:14:05.835Z,3.10
2019-03-31T03:15:05.827Z,3.10
2019-03-31T03:16:05.814Z,3.30
2019-03-31T03:17:05.824Z,3.40
2019-03-31T03:18:05.792Z,3.20
2019-03-31T03:19:05.787Z,3.20
2019-03-31T03:20:05.769Z,3.20
2019-03-31T03:21:05.758Z,3.20
2019-03-31T03:22:05.763Z,3.30
2019-03-31T03:23:05.746Z,3.10
2019-03-31T03:24:05.724Z,3.20
2019-03-31T03:25:05.722Z,3.10
2019-03-31T03:26:05.701Z,2.90
2019-03-31T03:27:05.704Z,3.10
2019-03-31T03:28:05.679Z,3.10
2019-03-31T03:29:05.681Z,2.90
2019-03-31T03:30:05.664Z,3.10
2019-03-31T03:31:13.975Z,2.80
2019-03-31T03:32:06.654Z,3.00
2019-03-31T03:33:16.287Z,2.90
2019-03-31T03:34:06.642Z,3.00
2019-03-31T03:35:05.611Z,2.90
2019-03-31T03:36:05.597Z,3.10
2019-03-31T03:37:05.606Z,2.90
2019-03-31T03:38:05.574Z,3.30
2019-03-31T03:39:05.558Z,2.80
2019-03-31T03:40:05.556Z,3.00
2019-03-31T03:41:05.535Z,3.10
2019-03-31T03:42:05.543Z,3.10
2019-03-31T03:43:05.514Z,3.00
2019-03-31T03:44:05.504Z,3.20
2019-03-31T03:45:05.490Z,2.90
2019-03-31T03:46:05.481Z,2.80
2019-03-31T03:47:05.486Z,3.10
2019-03-31T03:48:05.582Z,3.00
2019-03-31T03:49:05.516Z,3.20
2019-03-31T03:50:05.433Z,3.00
2019-03-31T03:51:05.423Z,2.80
2019-03-31T03:52:05.436Z,2.90
2019-03-31T03:53:05.410Z,2.70
2019-03-31T03:54:05.414Z,2.90
2019-03-31T03:55:05.376Z,3.10
2019-03-31T03:56:05.367Z,2.90
2019-03-31T03:57:05.369Z,2.90
2019-03-31T03:58:05.350Z,2.70
2019-03-31T03:59:05.337Z,3.00
2019-03-31T04:00:05.322Z,2.80
2019-03-31T04:01:05.309Z,3.30
2019-03-31T04:02:05.313Z,3.00
2019-03-31T04:03:05.289Z,3.20
2019-03-31T04:04:05.276Z,3.10
2019-03-31T04:05:05.276Z,3.10
2019-03-31T04:06:05.256Z,3.20
2019-03-31T04:07:05.259Z,3.20
2019-03-31T04:08:05.232Z,3.10
2019-03-31T04:09:05.223Z,3.00
2019-03-31T04:10:05.226Z,3.00
2019-03-31T04:11:05.204Z,2.70
2019-03-31T04:12:05.204Z,3.10
2019-03-31T04:13:05.183Z,2.80
2019-03-31T04:14:05.165Z,2.90
2019-03-31T04:15:05.159Z,2.80
2019-03-31T04:16:05.141Z,2.90
2019-03-31T04:17:05.150Z,2.90
2019-03-31T04:18:05.118Z,3.10
2019-03-31T04:19:05.109Z,3.30
2019-03-31T04:20:05.098Z,2.80
2019-03-31T04:21:05.098Z,3.00
2019-03-31T04:22:05.092Z,3.00
2019-03-31T04:23:05.066Z,2.90
2019-03-31T04:24:05.055Z,3.00
2019-03-31T04:25:05.041Z,3.20
2019-03-31T04:26:05.036Z,2.90
2019-03-31T04:27:05.041Z,3.00
2019-03-31T04:28:05.028Z,2.80
2019-03-31T04:29:04.997Z,3.00
2019-03-31T04:30:04.983Z,3.20
2019-03-31T04:31:04.973Z,2.90
2019-03-31T04:32:04.979Z,3.00
2019-03-31T04:33:04.951Z,3.10
2019-03-31T04:34:04.938Z,3.00
2019-03-31T04:35:04.928Z,2.80
2019-03-31T04:36:05.009Z,3.00
2019-03-31T04:37:04.930Z,2.90
2019-03-31T04:38:04.895Z,3.00
2019-03-31T04:39:04.890Z,2.70
2019-03-31T04:40:04.870Z,3.20
2019-03-31T04:41:04.863Z,2.70
2019-03-31T04:42:04.864Z,2.90
2019-03-31T04:43:04.837Z,2.80
2019-03-31T04:44:04.828Z,2.80
2019-03-31T04:45:04.827Z,2.80
2019-03-31T04:46:04.816Z,3.00
2019-03-31T04:47:04.810Z,2.90
2019-03-31T04:48:04.780Z,2.50
2019-03-31T04:49:04.786Z,2.50
2019-03-31T04:50:04.764Z,2.80
2019-03-31T04:51:04.748Z,2.90
2019-03-31T04:52:04.749Z,2.80
2019-03-31T04:53:04.724Z,2.70
2019-03-31T04:54:04.712Z,2.60
2019-03-31T04:55:04.704Z,2.90
2019-03-31T04:56:04.705Z,3.00
2019-03-31T04:57:04.798Z,2.90
2019-03-31T04:58:04.666Z,3.00
2019-03-31T04:59:04.662Z,3.00
2019-03-31T05:00:04.645Z,2.70
2019-03-31T05:01:04.634Z,2.60
2019-03-31T05:02:04.632Z,2.80
2019-03-31T05:03:04.630Z,2.60
2019-03-31T05:04:05.485Z,2.80
2019-03-31T05:05:04.590Z,2.70
2019-03-31T05:06:04.585Z,3.00
2019-03-31T05:07:04.573Z,2.70
2019-03-31T05:08:04.570Z,2.70
2019-03-31T05:09:04.544Z,2.80
2019-03-31T05:10:04.533Z,2.80
2019-03-31T05:11:04.521Z,2.70
2019-03-31T05:12:04.515Z,2.70
2019-03-31T05:13:04.514Z,2.40
2019-03-31T05:14:04.488Z,2.50
2019-03-31T05:15:04.479Z,2.50
2019-03-31T05:16:04.465Z,2.80
2019-03-31T05:17:04.453Z,2.60
2019-03-31T05:18:04.463Z,2.60
2019-03-31T05:19:04.436Z,2.40
2019-03-31T05:20:04.425Z,2.70
2019-03-31T05:21:04.410Z,2.70
2019-03-31T05:22:04.399Z,2.70
2019-03-31T05:23:04.402Z,2.50
2019-03-31T05:24:04.380Z,2.70
2019-03-31T05:25:04.381Z,2.80
2019-03-31T05:26:04.353Z,2.60
2019-03-31T05:27:04.342Z,2.60
2019-03-31T05:28:04.345Z,2.50
2019-03-31T05:29:04.320Z,2.70
2019-03-31T05:30:04.316Z,2.40
2019-03-31T05:31:04.312Z,2.50
2019-03-31T05:32:04.284Z,2.40
2019-03-31T05:33:04.291Z,2.70
2019-03-31T05:34:18.113Z,2.60
2019-03-31T05:35:05.251Z,2.80
2019-03-31T05:36:04.245Z,2.70
2019-03-31T05:37:04.229Z,2.70
2019-03-31T05:38:04.236Z,2.60
2019-03-31T05:39:04.205Z,2.20
2019-03-31T05:40:04.198Z,2.60
2019-03-31T05:41:04.186Z,2.60
2019-03-31T05:42:04.176Z,2.70
2019-03-31T05:43:04.180Z,2.80
2019-03-31T05:44:05.787Z,2.60
2019-03-31T05:45:04.139Z,2.40
2019-03-31T05:46:04.128Z,2.50
2019-03-31T05:47:04.117Z,2.70
2019-03-31T05:48:04.124Z,2.50
2019-03-31T05:49:04.093Z,2.70
2019-03-31T05:50:04.082Z,2.70
2019-03-31T05:51:04.071Z,2.90
2019-03-31T05:52:04.066Z,2.90
2019-03-31T05:53:04.064Z,2.80
2019-03-31T05:54:04.038Z,2.70
2019-03-31T05:55:04.027Z,3.10
2019-03-31T05:56:04.106Z,2.60
2019-03-31T05:57:04.006Z,2.40
2019-03-31T05:58:04.013Z,2.90
2019-03-31T05:59:03.990Z,2.70
2019-03-31T06:00:03.976Z,3.20
2019-03-31T06:01:03.958Z,2.70
2019-03-31T06:02:03.951Z,2.90
2019-03-31T06:03:03.954Z,2.60
2019-03-31T06:04:03.935Z,2.80
2019-03-31T06:05:03.915Z,2.50
2019-03-31T06:06:03.902Z,2.60
2019-03-31T06:07:03.890Z,2.60
2019-03-31T06:08:03.901Z,2.60
2019-03-31T06:09:03.870Z,2.40
2019-03-31T06:10:03.864Z,2.60
2019-03-31T06:11:03.849Z,2.50
2019-03-31T06:12:03.834Z,2.50
2019-03-31T06:13:03.843Z,2.50
2019-03-31T06:14:03.820Z,2.50
2019-03-31T06:15:03.802Z,2.80
2019-03-31T06:16:03.808Z,2.50
2019-03-31T06:17:03.779Z,2.70
2019-03-31T06:18:03.789Z,2.60
2019-03-31T06:19:03.755Z,2.70
2019-03-31T06:20:03.748Z,2.40
2019-03-31T06:21:03.741Z,2.60
2019-03-31T06:22:03.723Z,2.50
2019-03-31T06:23:03.730Z,10.30
2019-03-31T06:24:03.700Z,13.00
2019-03-31T06:25:03.710Z,16.80
2019-03-31T06:26:03.682Z,14.80
2019-03-31T06:27:03.675Z,15.80
2019-03-31T06:28:03.705Z,14.10
2019-03-31T06:29:03.643Z,11.20
2019-03-31T06:30:03.633Z,12.40
2019-03-31T06:31:03.634Z,11.10
2019-03-31T06:32:03.609Z,8.30
2019-03-31T06:33:03.625Z,7.90
2019-03-31T06:34:03.587Z,6.20
2019-03-31T06:35:03.578Z,6.50
2019-03-31T06:36:03.577Z,5.80
2019-03-31T06:37:03.560Z,5.70
2019-03-31T06:38:03.594Z,5.10
2019-03-31T06:39:03.533Z,4.90
2019-03-31T06:40:03.524Z,4.70
2019-03-31T06:41:03.516Z,5.00
2019-03-31T06:42:03.504Z,4.10
2019-03-31T06:43:03.512Z,3.80
2019-03-31T06:44:03.485Z,3.70
2019-03-31T06:45:03.466Z,3.90
2019-03-31T06:46:03.461Z,3.80
2019-03-31T06:47:03.454Z,3.40
2019-03-31T06:48:03.459Z,3.80
2019-03-31T06:49:03.422Z,3.80
2019-03-31T06:50:03.417Z,4.00
2019-03-31T06:51:03.397Z,3.80
2019-03-31T06:52:03.387Z,3.50
2019-03-31T06:53:03.393Z,3.50
2019-03-31T06:54:03.369Z,3.70
2019-03-31T06:55:03.355Z,3.70
2019-03-31T06:56:03.358Z,3.70
2019-03-31T06:57:03.331Z,3.60
2019-03-31T06:58:03.337Z,3.60
2019-03-31T06:59:03.309Z,3.30
2019-03-31T07:00:03.311Z,3.80
2019-03-31T07:01:03.295Z,3.40
2019-03-31T07:02:03.620Z,3.70
2019-03-31T07:03:03.276Z,3.60
2019-03-31T07:04:03.259Z,3.60
2019-03-31T07:05:03.246Z,3.40
2019-03-31T07:06:03.232Z,3.50
2019-03-31T07:07:03.233Z,3.40
2019-03-31T07:08:03.239Z,3.10
2019-03-31T07:09:03.196Z,3.40
2019-03-31T07:10:03.205Z,3.20
2019-03-31T07:11:03.174Z,3.40
2019-03-31T07:12:03.167Z,3.30
2019-03-31T07:13:03.162Z,3.40
2019-03-31T07:14:03.176Z,3.20
2019-03-31T07:15:03.131Z,3.30
2019-03-31T07:16:03.120Z,3.00
2019-03-31T07:17:03.118Z,3.40
2019-03-31T07:18:03.115Z,3.30
2019-03-31T07:19:03.099Z,3.20
2019-03-31T07:20:03.089Z,3.60
2019-03-31T07:21:03.061Z,3.40
2019-03-31T07:22:03.093Z,3.20
2019-03-31T07:23:03.039Z,3.20
2019-03-31T07:24:03.044Z,3.00
2019-03-31T07:25:03.016Z,3.50
2019-03-31T07:26:03.008Z,3.30
2019-03-31T07:27:02.996Z,3.30
2019-03-31T07:28:02.988Z,3.10
2019-03-31T07:29:02.990Z,3.10
2019-03-31T07:30:02.963Z,3.00
2019-03-31T07:31:02.952Z,3.50
2019-03-31T07:32:02.938Z,3.20
2019-03-31T07:33:02.930Z,3.20
2019-03-31T07:34:02.930Z,3.20
2019-03-31T07:35:02.907Z,3.00
2019-03-31T07:36:02.904Z,2.90
2019-03-31T07:37:02.881Z,3.30
2019-03-31T07:38:02.875Z,3.50
2019-03-31T07:39:03.075Z,3.10
2019-03-31T07:40:03.111Z,3.20
2019-03-31T07:41:12.493Z,3.20
2019-03-31T07:42:04.241Z,3.10
2019-03-31T07:43:02.846Z,3.20
2019-03-31T07:44:02.818Z,2.90
2019-03-31T07:45:02.791Z,2.90
2019-03-31T07:46:02.780Z,2.90
2019-03-31T07:47:02.772Z,3.40
2019-03-31T07:48:02.757Z,3.10
2019-03-31T07:49:02.767Z,3.00
2019-03-31T07:50:02.735Z,3.00
2019-03-31T07:51:02.727Z,3.10
2019-03-31T07:52:02.716Z,3.20
2019-03-31T07:53:02.711Z,3.20
2019-03-31T07:54:02.703Z,3.00
2019-03-31T07:55:02.680Z,2.80
2019-03-31T07:56:02.671Z,3.30
2019-03-31T07:57:02.664Z,2.80
2019-03-31T07:58:02.650Z,3.10
2019-03-31T07:59:02.680Z,3.00
2019-03-31T08:00:02.670Z,3.10
2019-03-31T08:01:02.612Z,3.30
2019-03-31T08:02:02.601Z,3.20
2019-03-31T08:03:02.591Z,3.40
2019-03-31T08:04:02.591Z,3.00
2019-03-31T08:05:02.567Z,3.20
2019-03-31T08:06:02.558Z,3.10
2019-03-31T08:07:02.548Z,2.70
2019-03-31T08:08:02.533Z,2.90
2019-03-31T08:09:02.554Z,3.00
2019-03-31T08:10:02.517Z,3.10
2019-03-31T08:11:02.500Z,3.40
2019-03-31T08:12:02.490Z,2.90
2019-03-31T08:13:02.477Z,3.00
2019-03-31T08:14:02.486Z,3.00
2019-03-31T08:15:02.461Z,3.00
2019-03-31T08:16:02.454Z,2.90
2019-03-31T08:17:02.433Z,2.90
2019-03-31T08:18:02.422Z,2.90
2019-03-31T08:19:02.431Z,2.90
2019-03-31T08:20:02.400Z,2.70
2019-03-31T08:21:02.397Z,2.60
2019-03-31T08:22:02.377Z,2.70
2019-03-31T08:23:02.366Z,3.10
2019-03-31T08:24:02.376Z,2.90
2019-03-31T08:25:02.344Z,2.90
2019-03-31T08:26:02.332Z,3.00
2019-03-31T08:27:05.433Z,3.30
2019-03-31T08:28:02.398Z,3.10
2019-03-31T08:29:02.315Z,3.40
2019-03-31T08:30:02.287Z,3.20
2019-03-31T08:31:02.281Z,3.50
2019-03-31T08:32:02.266Z,3.60
2019-03-31T08:33:02.268Z,3.10
2019-03-31T08:34:02.369Z,3.30
2019-03-31T08:35:02.244Z,3.10
2019-03-31T08:36:02.225Z,3.40
2019-03-31T08:37:02.228Z,3.20
2019-03-31T08:38:02.202Z,3.30
2019-03-31T08:39:02.212Z,3.40
2019-03-31T08:40:02.184Z,3.70
2019-03-31T08:41:02.166Z,3.50
2019-03-31T08:42:02.154Z,3.50
2019-03-31T08:43:02.145Z,3.40
2019-03-31T08:44:02.149Z,3.50
2019-03-31T08:45:02.123Z,3.80
2019-03-31T08:46:02.112Z,3.70
2019-03-31T08:47:02.100Z,4.50
2019-03-31T08:48:02.088Z,4.80
2019-03-31T08:49:02.095Z,4.50
2019-03-31T08:50:02.771Z,4.80
2019-03-31T08:51:02.055Z,4.50
2019-03-31T08:52:02.046Z,4.70
2019-03-31T08:53:02.036Z,4.20
2019-03-31T08:54:02.047Z,4.80
2019-03-31T08:55:02.014Z,4.70
2019-03-31T08:56:02.015Z,4.50
2019-03-31T08:57:01.996Z,5.10
2019-03-31T08:58:01.981Z,4.80
2019-03-31T08:59:01.984Z,4.90
2019-03-31T09:00:01.958Z,4.40
2019-03-31T09:01:01.947Z,4.90
2019-03-31T09:02:03.481Z,5.00
2019-03-31T09:03:01.921Z,4.90
2019-03-31T09:04:01.937Z,5.10
2019-03-31T09:05:01.900Z,5.00
2019-03-31T09:06:02.678Z,5.30
2019-03-31T09:07:01.898Z,5.00
2019-03-31T09:08:01.863Z,5.10
2019-03-31T09:09:01.870Z,5.30
2019-03-31T09:10:01.849Z,5.50
2019-03-31T09:11:01.838Z,5.50
2019-03-31T09:12:01.822Z,5.80
2019-03-31T09:13:01.821Z,5.30
2019-03-31T09:14:01.814Z,5.30
2019-03-31T09:15:01.804Z,5.40
2019-03-31T09:16:01.776Z,5.70
2019-03-31T09:17:01.779Z,6.20
2019-03-31T09:18:01.758Z,5.80
2019-03-31T09:19:01.761Z,6.10
2019-03-31T09:20:01.735Z,6.60
2019-03-31T09:21:01.723Z,6.00
2019-03-31T09:22:01.707Z,6.10
2019-03-31T09:23:01.715Z,5.90
2019-03-31T09:24:01.721Z,5.90
2019-03-31T09:25:01.681Z,6.10
2019-03-31T09:26:01.666Z,6.10
2019-03-31T09:27:01.653Z,5.80
2019-03-31T09:28:01.642Z,5.90
2019-03-31T09:29:01.632Z,5.90
2019-03-31T09:30:01.633Z,6.00
2019-03-31T09:31:01.608Z,6.40
2019-03-31T09:32:01.596Z,6.90
2019-03-31T09:33:01.587Z,5.90
2019-03-31T09:34:01.585Z,6.30
2019-03-31T09:35:01.580Z,6.00
2019-03-31T09:36:15.082Z,6.10
2019-03-31T09:37:02.540Z,6.90
2019-03-31T09:38:01.544Z,6.20
2019-03-31T09:39:01.520Z,6.10
2019-03-31T09:40:01.528Z,6.40
2019-03-31T09:41:01.518Z,6.60
2019-03-31T09:42:01.491Z,6.00
2019-03-31T09:43:01.475Z,6.10
2019-03-31T09:44:01.473Z,6.00
2019-03-31T09:45:01.474Z,5.80
2019-03-31T09:46:01.441Z,6.80
2019-03-31T09:47:01.440Z,6.20
2019-03-31T09:48:01.423Z,6.00
2019-03-31T09:49:01.413Z,5.80
2019-03-31T09:50:01.423Z,6.10
2019-03-31T09:51:01.388Z,6.10
2019-03-31T09:52:01.376Z,6.10
2019-03-31T09:53:01.367Z,5.60
2019-03-31T09:54:01.356Z,5.60
2019-03-31T09:55:01.356Z,5.90
2019-03-31T09:56:01.328Z,5.80
2019-03-31T09:57:01.318Z,6.10
2019-03-31T09:58:01.314Z,7.10
2019-03-31T09:59:01.297Z,6.20
2019-03-31T10:00:01.314Z,6.00
2019-03-31T10:01:01.277Z,5.90
2019-03-31T10:02:01.265Z,6.00
2019-03-31T10:03:01.342Z,5.90
2019-03-31T10:04:01.268Z,6.30
2019-03-31T10:05:01.261Z,6.10
2019-03-31T10:06:10.501Z,5.90
2019-03-31T10:07:02.214Z,6.20
2019-03-31T10:08:01.197Z,5.70
2019-03-31T10:09:01.189Z,5.70
2019-03-31T10:10:01.191Z,6.10
2019-03-31T10:11:02.831Z,5.70
2019-03-31T10:12:01.154Z,5.60
2019-03-31T10:13:01.145Z,6.10
2019-03-31T10:14:01.135Z,6.20
2019-03-31T10:15:01.144Z,6.50
2019-03-31T10:16:01.125Z,6.90
2019-03-31T10:17:01.101Z,6.00
2019-03-31T10:18:01.088Z,6.30
2019-03-31T10:19:01.075Z,6.10
2019-03-31T10:20:01.080Z,6.20
2019-03-31T10:21:01.058Z,6.50
2019-03-31T10:22:01.056Z,6.10
2019-03-31T10:23:01.035Z,6.70
2019-03-31T10:24:01.032Z,6.10
2019-03-31T10:25:01.030Z,6.20
2019-03-31T10:26:01.011Z,6.30
2019-03-31T10:27:00.996Z,6.20
2019-03-31T10:28:00.982Z,6.70
2019-03-31T10:29:00.975Z,6.40
2019-03-31T10:30:00.977Z,6.20
2019-03-31T10:31:00.945Z,6.30
2019-03-31T10:32:00.934Z,6.30
2019-03-31T10:33:00.931Z,6.50
2019-03-31T10:34:00.916Z,6.70
2019-03-31T10:35:00.917Z,6.90
2019-03-31T10:36:00.983Z,6.50
2019-03-31T10:37:00.887Z,6.70
2019-03-31T10:38:00.892Z,6.30
2019-03-31T10:39:00.861Z,7.20
2019-03-31T10:40:00.871Z,7.30
2019-03-31T10:41:00.836Z,6.70
2019-03-31T10:42:00.898Z,6.80
2019-03-31T10:43:00.813Z,7.10
2019-03-31T10:44:00.804Z,7.40
2019-03-31T10:45:00.808Z,7.20
2019-03-31T10:46:00.781Z,7.10
2019-03-31T10:47:00.770Z,7.30
2019-03-31T10:48:00.773Z,7.10
2019-03-31T10:49:00.759Z,7.20
2019-03-31T10:50:00.760Z,7.20
2019-03-31T10:51:00.737Z,8.20
2019-03-31T10:52:00.719Z,8.00
2019-03-31T10:53:00.719Z,8.40
2019-03-31T10:54:00.697Z,8.40
2019-03-31T10:55:00.713Z,8.10
2019-03-31T10:56:00.680Z,9.40
2019-03-31T10:57:00.661Z,8.70
2019-03-31T10:58:00.651Z,10.50
2019-03-31T10:59:00.641Z,17.60
2019-03-31T11:00:00.645Z,19.90
2019-03-31T11:01:00.619Z,19.70
2019-03-31T11:02:00.611Z,18.10
2019-03-31T11:03:00.629Z,15.20
2019-03-31T11:04:00.587Z,17.80
2019-03-31T11:05:00.600Z,18.70
2019-03-31T11:06:00.619Z,14.50
2019-03-31T11:07:03.473Z,15.10
2019-03-31T11:08:00.554Z,15.40
2019-03-31T11:09:00.580Z,15.60
2019-03-31T11:10:00.533Z,13.90
2019-03-31T11:11:00.509Z,13.20
2019-03-31T11:12:00.496Z,12.70
2019-03-31T11:13:00.487Z,12.60
2019-03-31T11:14:00.485Z,12.90
2019-03-31T11:15:00.487Z,12.10
2019-03-31T11:16:00.456Z,11.90
2019-03-31T11:17:00.448Z,12.30
2019-03-31T11:18:00.442Z,11.50
2019-03-31T11:19:00.424Z,11.50
2019-03-31T11:20:01.032Z,11.40
2019-03-31T11:21:00.398Z,10.90
2019-03-31T11:22:00.389Z,10.10
2019-03-31T11:23:00.391Z,10.20
2019-03-31T11:24:00.366Z,10.50
2019-03-31T11:25:00.401Z,10.10
2019-03-31T11:26:00.352Z,9.30
2019-03-31T11:27:00.332Z,8.90
2019-03-31T11:28:00.323Z,9.00
2019-03-31T11:29:00.310Z,9.50
2019-03-31T11:30:00.394Z,8.40
2019-03-31T11:31:00.304Z,8.60
2019-03-31T11:32:00.278Z,8.20
2019-03-31T11:33:00.267Z,8.40
2019-03-31T11:34:00.272Z,8.60
2019-03-31T11:35:00.366Z,8.60
2019-03-31T11:36:00.254Z,7.60
2019-03-31T11:37:13.006Z,8.10
2019-03-31T11:38:01.214Z,7.90
2019-03-31T11:39:00.200Z,7.10
2019-03-31T11:40:00.408Z,7.70
2019-03-31T11:41:00.193Z,8.30
2019-03-31T11:42:00.172Z,8.10
2019-03-31T11:43:00.165Z,8.60
2019-03-31T11:44:00.145Z,8.50
2019-03-31T11:45:00.367Z,8.00
2019-03-31T11:46:00.140Z,7.00
2019-03-31T11:47:00.127Z,7.60
2019-03-31T11:48:00.127Z,7.30
2019-03-31T11:49:00.092Z,7.00
2019-03-31T11:50:00.336Z,6.50
2019-03-31T11:51:00.504Z,6.60
2019-03-31T11:52:00.062Z,6.90
2019-03-31T11:53:00.053Z,7.00
2019-03-31T11:54:00.044Z,6.70
2019-03-31T11:55:00.028Z,6.50
2019-03-31T11:56:00.031Z,6.60
2019-03-31T11:57:00.007Z,6.30
2019-03-31T11:57:59.994Z,6.00
2019-03-31T11:58:59.979Z,5.80
2019-03-31T11:59:59.974Z,5.80
2019-03-31T12:00:59.984Z,5.90
2019-03-31T12:02:00.014Z,5.70
2019-03-31T12:02:59.938Z,5.40
2019-03-31T12:03:59.945Z,5.90
2019-03-31T12:04:59.926Z,5.20
2019-03-31T12:05:59.923Z,5.50
2019-03-31T12:06:59.919Z,5.10
2019-03-31T12:07:59.880Z,5.20
2019-03-31T12:08:59.870Z,5.30
2019-03-31T12:09:59.869Z,5.70
2019-03-31T12:10:59.876Z,5.60
2019-03-31T12:11:59.855Z,5.90
2019-03-31T12:12:59.831Z,5.30
2019-03-31T12:13:59.816Z,5.30
2019-03-31T12:15:01.039Z,5.00
2019-03-31T12:15:59.812Z,4.90
2019-03-31T12:16:59.791Z,5.00
2019-03-31T12:17:59.787Z,5.10
2019-03-31T12:18:59.762Z,4.90
2019-03-31T12:19:59.754Z,5.00
2019-03-31T12:20:59.759Z,4.90
2019-03-31T12:21:59.730Z,4.60
2019-03-31T12:22:59.724Z,4.50
2019-03-31T12:23:59.709Z,4.80
2019-03-31T12:25:11.407Z,4.70
2019-03-31T12:25:59.702Z,5.00
2019-03-31T12:26:59.675Z,5.10
2019-03-31T12:27:59.664Z,4.50
2019-03-31T12:28:59.655Z,4.60
2019-03-31T12:29:59.644Z,4.60
2019-03-31T12:30:59.646Z,4.50
2019-03-31T12:31:59.626Z,4.60
2019-03-31T12:32:59.676Z,4.40
2019-03-31T12:33:59.602Z,4.70
2019-03-31T12:34:59.598Z,4.60
2019-03-31T12:35:59.607Z,4.30
2019-03-31T12:36:59.565Z,4.30
2019-03-31T12:37:59.555Z,4.40
2019-03-31T12:38:59.556Z,4.10
2019-03-31T12:39:59.539Z,4.10
2019-03-31T12:40:59.535Z,4.60
2019-03-31T12:41:59.508Z,4.40
2019-03-31T12:42:59.497Z,4.10
2019-03-31T12:43:59.488Z,4.10
2019-03-31T12:44:59.475Z,4.20
2019-03-31T12:45:59.480Z,4.40
2019-03-31T12:46:59.456Z,4.10
2019-03-31T12:48:01.231Z,4.10
2019-03-31T12:48:59.431Z,3.90
2019-03-31T12:49:59.421Z,3.90
2019-03-31T12:50:59.454Z,3.80
2019-03-31T12:51:59.402Z,3.50
2019-03-31T12:52:59.387Z,3.40
2019-03-31T12:53:59.376Z,3.40
2019-03-31T12:54:59.366Z,3.50
2019-03-31T12:56:00.629Z,3.70
2019-03-31T12:56:59.364Z,3.90
2019-03-31T12:57:59.338Z,3.60
2019-03-31T12:58:59.322Z,4.30
2019-03-31T12:59:59.312Z,4.30
2019-03-31T13:00:59.299Z,4.60
2019-03-31T13:01:59.303Z,4.50
2019-03-31T13:02:59.283Z,4.70
2019-03-31T13:03:59.288Z,4.60
2019-03-31T13:04:59.256Z,4.70
2019-03-31T13:05:59.244Z,4.40
2019-03-31T13:06:59.249Z,4.20
2019-03-31T13:07:59.224Z,5.00
2019-03-31T13:08:59.232Z,4.80
2019-03-31T13:09:59.201Z,4.80
2019-03-31T13:10:59.209Z,4.60
2019-03-31T13:11:59.195Z,4.10
2019-03-31T13:12:59.174Z,4.60
2019-03-31T13:13:59.158Z,4.30
2019-03-31T13:14:59.156Z,4.20
2019-03-31T13:15:59.159Z,4.10
2019-03-31T13:17:01.535Z,4.40